sensor_id;sensor_type;location;lat;lon;timestamp;P1;durP1;ratioP1;P2;durP2;ratioP2
35304;SDS011;26433;48.034;-1.764;2023-03-01T06:03:53;6.82;;;3.05;;
35304;SDS011;26433;48.034;-1.764;2023-03-01T06:08:57;6.80;;;2.95;;
35304;SDS011;26433;48.034;-1.764;2023-03-01T06:14:01;5.82;;;2.65;;
35304;SDS011;26433;48.034;-1.764;2023-03-01T06:24:09;8.45;;;3.05;;
35304;SDS011;26433;48.034;-1.764;2023-03-01T06:29:13;7.72;;;2.45;;
35304;SDS011;26433;48.034;-1.764;2023-03-01T06:34:18;7.70;;;3.12;;
35304;SDS011;26433;48.034;-1.764;2023-03-01T06:39:23;5.00;;;2.65;;
35304;SDS011;26433;48.034;-1.764;2023-03-01T06:44:27;6.93;;;3.12;;
35304;SDS011;26433;48.034;-1.764;2023-03-01T06:49:32;8.05;;;2.78;;
35304;SDS011;26433;48.034;-1.764;2023-03-01T06:54:35;6.18;;;3.15;;
35304;SDS011;26433;48.034;-1.764;2023-03-01T06:59:39;5.85;;;2.45;;
35304;SDS011;26433;48.034;-1.764;2023-03-01T07:04:44;6.28;;;2.65;;
35304;SDS011;26433;48.034;-1.764;2023-03-01T07:09:48;6.20;;;3.10;;
35304;SDS011;26433;48.034;-1.764;2023-03-01T07:14:52;6.75;;;2.95;;
35304;SDS011;26433;48.034;-1.764;2023-03-01T07:19:57;4.30;;;2.83;;
35304;SDS011;26433;48.034;-1.764;2023-03-01T07:25:00;6.10;;;2.85;;
35304;SDS011;26433;48.034;-1.764;2023-03-01T07:30:05;6.03;;;2.75;;
35304;SDS011;26433;48.034;-1.764;2023-03-01T07:35:10;8.23;;;2.92;;
35304;SDS011;26433;48.034;-1.764;2023-03-01T07:40:14;5.15;;;2.30;;
35304;SDS011;26433;48.034;-1.764;2023-03-01T07:45:18;8.00;;;3.30;;
35304;SDS011;26433;48.034;-1.764;2023-03-01T07:50:23;6.43;;;2.47;;
35304;SDS011;26433;48.034;-1.764;2023-03-01T07:55:27;4.55;;;2.67;;
35304;SDS011;26433;48.034;-1.764;2023-03-01T08:00:30;5.37;;;2.62;;
35304;SDS011;26433;48.034;-1.764;2023-03-01T08:05:35;9.48;;;3.20;;
35304;SDS011;26433;48.034;-1.764;2023-03-01T08:10:39;7.68;;;2.33;;
35304;SDS011;26433;48.034;-1.764;2023-03-01T08:15:42;6.95;;;2.67;;
35304;SDS011;26433;48.034;-1.764;2023-03-01T08:20:47;4.70;;;2.53;;
35304;SDS011;26433;48.034;-1.764;2023-03-01T08:25:51;7.45;;;2.58;;
35304;SDS011;26433;48.034;-1.764;2023-03-01T08:30:54;6.22;;;2.83;;
35304;SDS011;26433;48.034;-1.764;2023-03-01T08:36:06;5.32;;;2.40;;
35304;SDS011;26433;48.034;-1.764;2023-03-01T08:41:09;6.87;;;2.67;;
35304;SDS011;26433;48.034;-1.764;2023-03-01T08:46:13;4.45;;;2.08;;
35304;SDS011;26433;48.034;-1.764;2023-03-01T08:51:18;6.12;;;2.22;;
35304;SDS011;26433;48.034;-1.764;2023-03-01T08:56:22;7.12;;;2.65;;
35304;SDS011;26433;48.034;-1.764;2023-03-01T09:01:26;6.75;;;2.33;;
35304;SDS011;26433;48.034;-1.764;2023-03-01T09:06:31;5.28;;;1.83;;
35304;SDS011;26433;48.034;-1.764;2023-03-01T09:11:36;5.10;;;2.08;;
35304;SDS011;26433;48.034;-1.764;2023-03-01T09:16:39;3.70;;;1.73;;
35304;SDS011;26433;48.034;-1.764;2023-03-01T09:21:44;7.87;;;2.70;;
35304;SDS011;26433;48.034;-1.764;2023-03-01T09:26:54;6.22;;;2.45;;
35304;SDS011;26433;48.034;-1.764;2023-03-01T09:31:58;3.80;;;1.70;;
35304;SDS011;26433;48.034;-1.764;2023-03-01T09:37:03;4.35;;;2.25;;
35304;SDS011;26433;48.034;-1.764;2023-03-01T09:42:11;4.57;;;2.08;;
35304;SDS011;26433;48.034;-1.764;2023-03-01T09:47:17;6.03;;;1.95;;
35304;SDS011;26433;48.034;-1.764;2023-03-01T09:52:25;5.10;;;2.22;;
35304;SDS011;26433;48.034;-1.764;2023-03-01T09:57:36;4.50;;;1.85;;
35304;SDS011;26433;48.034;-1.764;2023-03-01T10:02:45;5.60;;;2.50;;
35304;SDS011;26433;48.034;-1.764;2023-03-01T10:07:54;5.22;;;2.50;;
35304;SDS011;26433;48.034;-1.764;2023-03-01T10:13:08;5.97;;;2.50;;
35304;SDS011;26433;48.034;-1.764;2023-03-01T10:18:18;5.25;;;3.00;;
35304;SDS011;26433;48.034;-1.764;2023-03-01T10:23:26;11.50;;;2.47;;
35304;SDS011;26433;48.034;-1.764;2023-03-01T10:28:35;6.90;;;2.78;;
35304;SDS011;26433;48.034;-1.764;2023-03-01T10:33:47;7.15;;;2.85;;
35304;SDS011;26433;48.034;-1.764;2023-03-01T10:38:58;9.10;;;2.42;;
35304;SDS011;26433;48.034;-1.764;2023-03-01T10:44:01;5.68;;;2.42;;
35304;SDS011;26433;48.034;-1.764;2023-03-01T10:49:10;3.75;;;1.95;;
35304;SDS011;26433;48.034;-1.764;2023-03-01T10:54:19;5.87;;;2.72;;
35304;SDS011;26433;48.034;-1.764;2023-03-01T10:59:26;6.12;;;2.97;;
35304;SDS011;26433;48.034;-1.764;2023-03-01T11:04:31;5.85;;;2.40;;
35304;SDS011;26433;48.034;-1.764;2023-03-01T11:09:36;7.53;;;3.27;;
35304;SDS011;26433;48.034;-1.764;2023-03-01T11:14:45;7.97;;;3.42;;
35304;SDS011;26433;48.034;-1.764;2023-03-01T11:20:01;7.93;;;3.30;;
35304;SDS011;26433;48.034;-1.764;2023-03-01T11:25:10;9.70;;;3.67;;
35304;SDS011;26433;48.034;-1.764;2023-03-01T11:30:18;6.18;;;3.67;;
35304;SDS011;26433;48.034;-1.764;2023-03-01T11:35:26;9.18;;;4.05;;
35304;SDS011;26433;48.034;-1.764;2023-03-01T11:40:34;10.05;;;3.50;;
35304;SDS011;26433;48.034;-1.764;2023-03-01T11:45:53;8.88;;;4.03;;
35304;SDS011;26433;48.034;-1.764;2023-03-01T11:51:23;7.87;;;4.05;;
35304;SDS011;26433;48.034;-1.764;2023-03-01T11:56:35;7.47;;;3.90;;
35304;SDS011;26433;48.034;-1.764;2023-03-01T12:01:47;8.98;;;4.07;;
35304;SDS011;26433;48.034;-1.764;2023-03-01T12:07:00;5.53;;;3.62;;
35304;SDS011;26433;48.034;-1.764;2023-03-01T12:17:43;5.90;;;3.78;;
35304;SDS011;26433;48.034;-1.764;2023-03-01T12:28:48;11.52;;;3.33;;
35304;SDS011;26433;48.034;-1.764;2023-03-01T12:34:01;11.12;;;4.55;;
35304;SDS011;26433;48.034;-1.764;2023-03-01T12:39:15;8.60;;;4.45;;
35304;SDS011;26433;48.034;-1.764;2023-03-01T12:50:00;8.02;;;3.30;;
35304;SDS011;26433;48.034;-1.764;2023-03-01T12:55:07;6.87;;;3.72;;
35304;SDS011;26433;48.034;-1.764;2023-03-01T13:00:30;6.10;;;3.70;;
35304;SDS011;26433;48.034;-1.764;2023-03-01T13:05:39;5.45;;;3.12;;
35304;SDS011;26433;48.034;-1.764;2023-03-01T13:10:50;7.25;;;2.87;;
35304;SDS011;26433;48.034;-1.764;2023-03-01T13:15:59;4.85;;;3.08;;
35304;SDS011;26433;48.034;-1.764;2023-03-01T13:21:30;3.25;;;2.30;;
35304;SDS011;26433;48.034;-1.764;2023-03-01T13:26:53;3.08;;;2.30;;
35304;SDS011;26433;48.034;-1.764;2023-03-01T13:32:23;3.67;;;1.77;;
35304;SDS011;26433;48.034;-1.764;2023-03-01T13:37:43;2.78;;;1.98;;
35304;SDS011;26433;48.034;-1.764;2023-03-01T13:42:47;6.37;;;2.25;;
35304;SDS011;26433;48.034;-1.764;2023-03-01T13:48:10;4.43;;;2.47;;
35304;SDS011;26433;48.034;-1.764;2023-03-01T13:53:18;2.00;;;1.75;;
35304;SDS011;26433;48.034;-1.764;2023-03-01T13:58:25;2.67;;;1.83;;
35304;SDS011;26433;48.034;-1.764;2023-03-01T14:03:32;14.40;;;2.12;;
35304;SDS011;26433;48.034;-1.764;2023-03-01T14:08:43;3.70;;;2.08;;
35304;SDS011;26433;48.034;-1.764;2023-03-01T14:13:51;3.33;;;1.90;;
35304;SDS011;26433;48.034;-1.764;2023-03-01T14:19:09;2.25;;;1.52;;
35304;SDS011;26433;48.034;-1.764;2023-03-01T14:24:33;4.80;;;2.72;;
35304;SDS011;26433;48.034;-1.764;2023-03-01T14:29:41;2.97;;;1.60;;
35304;SDS011;26433;48.034;-1.764;2023-03-01T14:34:48;2.63;;;1.50;;
35304;SDS011;26433;48.034;-1.764;2023-03-01T14:39:52;11.18;;;1.92;;
35304;SDS011;26433;48.034;-1.764;2023-03-01T14:44:57;8.80;;;2.22;;
35304;SDS011;26433;48.034;-1.764;2023-03-01T14:50:07;14.15;;;2.35;;
35304;SDS011;26433;48.034;-1.764;2023-03-01T14:55:13;2.10;;;1.70;;
35304;SDS011;26433;48.034;-1.764;2023-03-01T15:00:21;4.15;;;2.45;;
35304;SDS011;26433;48.034;-1.764;2023-03-01T15:05:29;2.85;;;1.62;;
35304;SDS011;26433;48.034;-1.764;2023-03-01T15:10:34;3.10;;;2.62;;
35304;SDS011;26433;48.034;-1.764;2023-03-01T15:15:39;4.03;;;2.47;;
35304;SDS011;26433;48.034;-1.764;2023-03-01T15:20:46;7.25;;;3.00;;
35304;SDS011;26433;48.034;-1.764;2023-03-01T15:25:51;4.28;;;2.40;;
35304;SDS011;26433;48.034;-1.764;2023-03-01T15:31:00;4.95;;;2.87;;
35304;SDS011;26433;48.034;-1.764;2023-03-01T15:41:38;2.65;;;2.10;;
35304;SDS011;26433;48.034;-1.764;2023-03-01T15:46:49;3.28;;;2.10;;
35304;SDS011;26433;48.034;-1.764;2023-03-01T15:51:55;5.73;;;2.57;;
35304;SDS011;26433;48.034;-1.764;2023-03-01T15:56:58;4.57;;;2.67;;
35304;SDS011;26433;48.034;-1.764;2023-03-01T16:02:02;7.22;;;2.62;;
35304;SDS011;26433;48.034;-1.764;2023-03-01T16:07:12;7.65;;;2.55;;
35304;SDS011;26433;48.034;-1.764;2023-03-01T16:12:16;3.97;;;2.55;;
35304;SDS011;26433;48.034;-1.764;2023-03-01T16:17:22;7.07;;;2.40;;
35304;SDS011;26433;48.034;-1.764;2023-03-01T16:22:27;4.43;;;2.45;;
35304;SDS011;26433;48.034;-1.764;2023-03-01T16:27:30;6.45;;;2.62;;
35304;SDS011;26433;48.034;-1.764;2023-03-01T16:32:37;4.07;;;2.53;;
35304;SDS011;26433;48.034;-1.764;2023-03-01T16:37:42;4.80;;;2.37;;
35304;SDS011;26433;48.034;-1.764;2023-03-01T16:42:46;3.37;;;2.05;;
35304;SDS011;26433;48.034;-1.764;2023-03-01T16:47:50;6.37;;;2.50;;
35304;SDS011;26433;48.034;-1.764;2023-03-01T16:52:58;5.68;;;2.22;;
35304;SDS011;26433;48.034;-1.764;2023-03-01T16:58:02;5.03;;;2.28;;
35304;SDS011;26433;48.034;-1.764;2023-03-01T17:03:06;4.72;;;2.40;;
35304;SDS011;26433;48.034;-1.764;2023-03-01T17:08:11;4.23;;;2.10;;
35304;SDS011;26433;48.034;-1.764;2023-03-01T17:13:15;5.60;;;1.73;;
35304;SDS011;26433;48.034;-1.764;2023-03-01T17:18:18;8.07;;;1.93;;
35304;SDS011;26433;48.034;-1.764;2023-03-01T17:23:23;2.40;;;1.47;;
35304;SDS011;26433;48.034;-1.764;2023-03-01T17:28:27;4.65;;;1.87;;
35304;SDS011;26433;48.034;-1.764;2023-03-01T17:33:33;2.75;;;1.65;;
35304;SDS011;26433;48.034;-1.764;2023-03-01T17:38:38;3.27;;;1.80;;
35304;SDS011;26433;48.034;-1.764;2023-03-01T17:43:41;6.60;;;1.75;;
35304;SDS011;26433;48.034;-1.764;2023-03-01T17:48:45;3.93;;;2.10;;
35304;SDS011;26433;48.034;-1.764;2023-03-01T17:53:51;3.75;;;1.77;;
35304;SDS011;26433;48.034;-1.764;2023-03-01T17:58:55;3.85;;;1.70;;
35304;SDS011;26433;48.034;-1.764;2023-03-01T18:03:58;4.93;;;1.90;;
35304;SDS011;26433;48.034;-1.764;2023-03-01T18:09:04;4.62;;;1.87;;
35304;SDS011;26433;48.034;-1.764;2023-03-01T18:14:08;3.62;;;1.77;;
35304;SDS011;26433;48.034;-1.764;2023-03-01T18:19:11;4.10;;;2.10;;
35304;SDS011;26433;48.034;-1.764;2023-03-01T18:24:16;5.60;;;1.33;;
35304;SDS011;26433;48.034;-1.764;2023-03-01T18:29:19;4.05;;;1.95;;
35304;SDS011;26433;48.034;-1.764;2023-03-01T18:34:23;3.47;;;2.10;;
35304;SDS011;26433;48.034;-1.764;2023-03-01T18:39:28;6.22;;;2.22;;
35304;SDS011;26433;48.034;-1.764;2023-03-01T18:44:32;8.75;;;2.08;;
35304;SDS011;26433;48.034;-1.764;2023-03-01T18:49:35;8.10;;;2.00;;
35304;SDS011;26433;48.034;-1.764;2023-03-01T18:54:40;3.47;;;1.63;;
35304;SDS011;26433;48.034;-1.764;2023-03-01T18:59:44;3.90;;;2.25;;
35304;SDS011;26433;48.034;-1.764;2023-03-01T19:04:48;5.23;;;2.47;;
35304;SDS011;26433;48.034;-1.764;2023-03-01T19:09:53;3.35;;;1.90;;
35304;SDS011;26433;48.034;-1.764;2023-03-01T19:14:57;5.95;;;2.17;;
35304;SDS011;26433;48.034;-1.764;2023-03-01T19:20:00;5.43;;;2.17;;
35304;SDS011;26433;48.034;-1.764;2023-03-01T19:25:06;3.78;;;1.90;;
35304;SDS011;26433;48.034;-1.764;2023-03-01T19:30:11;3.40;;;2.12;;
35304;SDS011;26433;48.034;-1.764;2023-03-01T19:35:15;5.85;;;2.50;;
35304;SDS011;26433;48.034;-1.764;2023-03-01T19:40:20;6.30;;;2.28;;
35304;SDS011;26433;48.034;-1.764;2023-03-01T19:45:23;3.25;;;1.80;;
35304;SDS011;26433;48.034;-1.764;2023-03-01T19:50:34;3.00;;;1.90;;
35304;SDS011;26433;48.034;-1.764;2023-03-01T19:55:40;3.78;;;1.87;;
35304;SDS011;26433;48.034;-1.764;2023-03-01T20:00:44;4.93;;;2.00;;
35304;SDS011;26433;48.034;-1.764;2023-03-01T20:05:49;4.05;;;2.28;;
35304;SDS011;26433;48.034;-1.764;2023-03-01T20:10:59;4.40;;;1.90;;
35304;SDS011;26433;48.034;-1.764;2023-03-01T20:16:05;7.75;;;2.12;;
35304;SDS011;26433;48.034;-1.764;2023-03-01T20:21:09;4.43;;;2.12;;
35304;SDS011;26433;48.034;-1.764;2023-03-01T20:26:26;7.68;;;2.12;;
35304;SDS011;26433;48.034;-1.764;2023-03-01T20:31:30;3.33;;;1.83;;
35304;SDS011;26433;48.034;-1.764;2023-03-01T20:36:34;6.43;;;2.43;;
35304;SDS011;26433;48.034;-1.764;2023-03-01T20:41:40;4.20;;;1.80;;
35304;SDS011;26433;48.034;-1.764;2023-03-01T20:46:44;4.78;;;2.20;;
35304;SDS011;26433;48.034;-1.764;2023-03-01T20:51:48;13.75;;;3.72;;
35304;SDS011;26433;48.034;-1.764;2023-03-01T20:56:53;16.40;;;4.10;;
35304;SDS011;26433;48.034;-1.764;2023-03-01T21:01:57;11.73;;;3.10;;
35304;SDS011;26433;48.034;-1.764;2023-03-01T21:07:00;26.30;;;4.00;;
35304;SDS011;26433;48.034;-1.764;2023-03-01T21:12:05;21.47;;;4.73;;
35304;SDS011;26433;48.034;-1.764;2023-03-01T21:17:09;5.22;;;2.58;;
35304;SDS011;26433;48.034;-1.764;2023-03-01T21:22:14;3.60;;;1.80;;
35304;SDS011;26433;48.034;-1.764;2023-03-01T21:32:23;5.45;;;2.17;;
35304;SDS011;26433;48.034;-1.764;2023-03-01T21:37:27;5.97;;;2.30;;
35304;SDS011;26433;48.034;-1.764;2023-03-01T21:47:37;8.40;;;2.37;;
35304;SDS011;26433;48.034;-1.764;2023-03-01T21:52:41;12.37;;;2.80;;
35304;SDS011;26433;48.034;-1.764;2023-03-01T21:57:46;6.07;;;2.60;;
35304;SDS011;26433;48.034;-1.764;2023-03-01T22:02:49;3.65;;;1.77;;
35304;SDS011;26433;48.034;-1.764;2023-03-01T22:07:58;4.62;;;2.20;;
35304;SDS011;26433;48.034;-1.764;2023-03-01T22:13:04;5.85;;;1.77;;
35304;SDS011;26433;48.034;-1.764;2023-03-01T22:18:08;6.07;;;2.25;;
35304;SDS011;26433;48.034;-1.764;2023-03-01T22:23:12;7.15;;;2.03;;
35304;SDS011;26433;48.034;-1.764;2023-03-01T22:28:17;4.00;;;1.80;;
35304;SDS011;26433;48.034;-1.764;2023-03-01T22:33:21;7.72;;;2.12;;
35304;SDS011;26433;48.034;-1.764;2023-03-01T22:38:25;7.03;;;2.37;;
35304;SDS011;26433;48.034;-1.764;2023-03-01T22:43:30;3.92;;;1.92;;
35304;SDS011;26433;48.034;-1.764;2023-03-01T22:48:34;4.78;;;1.70;;
35304;SDS011;26433;48.034;-1.764;2023-03-01T22:53:38;7.05;;;1.98;;
35304;SDS011;26433;48.034;-1.764;2023-03-01T22:58:43;5.32;;;1.98;;
35304;SDS011;26433;48.034;-1.764;2023-03-01T23:03:46;5.95;;;2.28;;
35304;SDS011;26433;48.034;-1.764;2023-03-01T23:08:52;3.92;;;2.20;;
35304;SDS011;26433;48.034;-1.764;2023-03-01T23:13:58;3.50;;;2.10;;
35304;SDS011;26433;48.034;-1.764;2023-03-01T23:19:02;5.00;;;1.98;;
35304;SDS011;26433;48.034;-1.764;2023-03-01T23:24:06;5.00;;;2.50;;
35304;SDS011;26433;48.034;-1.764;2023-03-01T23:29:11;7.15;;;1.98;;
